Houma, LA

1:09 AM CDT on July 08, 2015 (GMT -0500)
Summerfield | | Change Station
CLOSE
Current Station
Personal Weather Station
Location: Houma, LA
Elevation: 15 ft
Nearby Weather Stations

Elev 15 ft 29.58 °N, 90.75 °W | Updated 4 minutes ago

Clear
Clear
82.2 °F
Feels Like 92 °F
N
0.0
Wind Variable Wind from SSE
Gusts 5.0 mph

Today
High -- | Low -- °F
--% Chance of Precip.
Yesterday
High -- | Low -- °F
Precip. -- in
6:09 AM 8:06 PM
Waning Gibbous, 57% visible
Pressure 30.11 in
Visibility 7.0 miles
Clouds Scattered Clouds 2200 ft
Scattered Clouds 3200 ft
Heat Index 92 °F
Dew Point 78 °F
Humidity 88%
Rainfall 0.00 in
Snow Depth Not available.
UV 0 out of 12
Pollen 3.70 out of 12
Air Quality Not available.
Flu Activity Not available.
METAR KHUM 080555Z AUTO 15005KT 7SM SCT022 SCT032 27/25 A3011 RMK AO2 T02720250 10301 20272

More Conditions Fewer Conditions

Pressure 30.11 in
Visibility 7.0 miles
Clouds Scattered Clouds 2200 ft
Scattered Clouds 3200 ft
Heat Index 92 °F
Dew Point 78 °F
Humidity 88%
Rainfall 0.00 in
Snow Depth Not available.
UV 0 out of 12
Pollen 3.70 out of 12
Air Quality Not available.
Flu Activity Not available.
METAR KHUM 080555Z AUTO 15005KT 7SM SCT022 SCT032 27/25 A3011 RMK AO2 T02720250 10301 20272

More Conditions Fewer Conditions

10-Day Weather Forecast

×

Almanac

Astronomy

Jul. 08, 2015 Rise Set
Actual Time
Civil Twilight
Nautical Twilight
Astronomical Twilight
Moon
Length of Visible Light
Length of Day
Tomorrow will be .
, % of the Moon is Illuminated

Today's Extremes

State Highs State Lows

Community

WunderPhotos

Upload Photos

1,836,061 photos uploaded!

WunderBlogs® & News

Nearby

Air Quality

  Air Quality AQ Index Pollutant
Not available.

Snow Depth

Station Depth Elevation

Earthquake Activity

City Distance Mag. Time & Date
Minimum magnitude displayed is 2.5.

Coastal Water Temperatures

Place Temperature

Stations

Nearby Weather Stations

Station Location Temp. Windchill Dew Point Humidity Wind Precip. Elev Updated Type